Time;durP1;ratioP1;P1;durP2;ratioP2;P2;SDS_P1;SDS_P2;PMS_P1;PMS_P2;Temp;Humidity;BMP_temperature;BMP_pressure;BME280_temperature;BME280_humidity;BME280_pressure;Samples;Min_cycle;Max_cycle;Signal;HPM_P1;HPM_P2
2022/07/26 00:01:34;;;;;;;14.32;8.82;;;665.90;1715.20;;;;;;5112382;28;20046;-78
2022/07/26 00:04:00;;;;;;;11.43;9.57;;;665.70;1715.20;;;;;;5113589;28;20475;-77
2022/07/26 00:06:36;;;;;;;12.30;9.63;;;665.90;1740.80;;;;;;5099292;28;20020;-80
2022/07/26 00:09:02;;;;;;;11.98;9.73;;;665.70;1740.80;;;;;;5098872;28;20020;-76
2022/07/26 00:11:32;;;;;;;15.95;9.85;;;665.70;1740.80;;;;;;5097102;28;20020;-75
2022/07/26 00:13:58;;;;;;;14.43;9.88;;;665.70;1740.80;;;;;;5094662;28;20028;-77
2022/07/26 00:16:24;;;;;;;11.65;9.45;;;665.60;1766.40;;;;;;5113830;28;20016;-77
2022/07/26 00:18:50;;;;;;;12.73;9.73;;;665.60;1766.40;;;;;;5095724;28;20119;-78
2022/07/26 00:21:16;;;;;;;11.88;10.10;;;665.60;1740.80;;;;;;5092538;28;20035;-78
2022/07/26 00:23:42;;;;;;;11.80;8.60;;;665.60;1740.80;;;;;;5110496;28;20420;-78
2022/07/26 00:26:08;;;;;;;11.82;8.93;;;640.90;1740.80;;;;;;5110059;28;20020;-77
2022/07/26 00:28:34;;;;;;;13.73;9.57;;;640.90;1766.40;;;;;;5107625;28;20160;-78
2022/07/26 00:31:02;;;;;;;18.15;9.25;;;640.90;1740.80;;;;;;5108775;28;20031;-76
2022/07/26 00:33:28;;;;;;;11.90;9.20;;;665.60;1766.40;;;;;;5103895;27;20022;-80
2022/07/26 00:35:53;;;;;;;13.52;9.43;;;665.70;1740.80;;;;;;5092833;28;20020;-80
2022/07/26 00:38:19;;;;;;;14.52;10.13;;;665.70;1740.80;;;;;;5113481;28;20012;-77
2022/07/26 00:40:45;;;;;;;14.20;9.52;;;665.70;1740.80;;;;;;5113114;28;20031;-77
2022/07/26 00:43:13;;;;;;;12.55;9.05;;;665.80;1740.80;;;;;;5095508;28;20465;-77
2022/07/26 00:45:39;;;;;;;11.98;9.30;;;665.70;1740.80;;;;;;5111019;28;20011;-77
2022/07/26 00:48:14;;;;;;;14.82;10.32;;;665.90;1740.80;;;;;;5094520;28;20369;-78
2022/07/26 00:50:40;;;;;;;15.25;10.13;;;665.90;1740.80;;;;;;5095609;28;20028;-78
2022/07/26 00:53:06;;;;;;;14.80;9.75;;;665.90;1740.80;;;;;;5095003;28;20104;-78
2022/07/26 00:55:32;;;;;;;12.30;10.32;;;665.90;1740.80;;;;;;5113087;28;20121;-77
2022/07/26 00:58:00;;;;;;;14.02;8.90;;;666.00;1715.20;;;;;;5110660;28;20016;-77
2022/07/26 01:00:26;;;;;;;14.23;9.27;;;666.00;1740.80;;;;;;5094923;28;20059;-78
2022/07/26 01:02:53;;;;;;;13.23;9.30;;;665.90;1740.80;;;;;;5094933;28;20028;-78
2022/07/26 01:05:23;;;;;;;13.57;9.65;;;665.90;1740.80;;;;;;5092407;28;20020;-78
2022/07/26 01:07:54;;;;;;;11.32;8.43;;;665.90;1766.40;;;;;;5095323;28;20019;-78
2022/07/26 01:10:20;;;;;;;13.65;9.60;;;665.90;1766.40;;;;;;5126340;28;20541;-78
2022/07/26 01:12:46;;;;;;;10.95;9.48;;;665.80;1766.40;;;;;;5112775;28;20035;-78
2022/07/26 01:15:13;;;;;;;12.15;9.50;;;665.60;1792.00;;;;;;5094845;28;20023;-78
2022/07/26 01:17:40;;;;;;;15.45;9.32;;;665.70;1792.00;;;;;;5093600;28;20039;-77
2022/07/26 01:20:09;;;;;;;12.38;8.93;;;665.70;1792.00;;;;;;5093340;28;20042;-78
2022/07/26 01:22:35;;;;;;;12.32;9.68;;;665.70;1792.00;;;;;;5093641;28;20130;-78
2022/07/26 01:25:01;;;;;;;10.38;8.90;;;665.70;1792.00;;;;;;5093951;28;20030;-77
2022/07/26 01:27:27;;;;;;;18.42;9.70;;;665.60;1817.60;;;;;;5112144;28;20015;-78
2022/07/26 01:29:53;;;;;;;10.73;9.18;;;665.70;1792.00;;;;;;5093177;28;20581;-78
2022/07/26 01:32:19;;;;;;;13.82;9.45;;;665.60;1817.60;;;;;;5093929;28;20020;-77
2022/07/26 01:34:52;;;;;;;14.98;10.10;;;665.60;1868.80;;;;;;5098126;28;20024;-76
2022/07/26 01:37:19;;;;;;;13.77;8.73;;;665.60;1945.60;;;;;;5098797;28;20024;-77
2022/07/26 01:39:45;;;;;;;14.25;9.13;;;665.60;2022.40;;;;;;5080431;28;20036;-78
2022/07/26 01:42:10;;;;;;;14.20;10.15;;;640.90;1996.80;;;;;;5095180;28;20038;-87
2022/07/26 01:44:36;;;;;;;14.10;10.63;;;640.70;2048.00;;;;;;5094744;28;20107;-83
2022/07/26 01:47:02;;;;;;;16.40;10.43;;;640.60;2073.60;;;;;;5099897;28;20106;-87
2022/07/26 01:49:28;;;;;;;16.88;10.27;;;640.50;2124.80;;;;;;5102165;28;20076;-83
2022/07/26 01:51:54;;;;;;;36.05;11.82;;;640.40;2176.00;;;;;;5098469;28;20494;-85
2022/07/26 01:54:19;;;;;;;12.68;10.13;;;640.20;2176.00;;;;;;5098205;28;20614;-87
2022/07/26 01:56:45;;;;;;;14.88;9.55;;;640.20;2201.60;;;;;;5098672;28;20043;-85
2022/07/26 01:59:11;;;;;;;17.02;9.57;;;640.10;2227.20;;;;;;5097851;28;20019;-77
2022/07/26 02:01:37;;;;;;;13.43;10.00;;;615.20;2201.60;;;;;;5096689;28;20502;-78
2022/07/26 02:04:02;;;;;;;15.95;10.43;;;615.20;2176.00;;;;;;5115196;28;20015;-78
2022/07/26 02:06:28;;;;;;;15.25;9.82;;;615.30;2176.00;;;;;;5114992;28;20024;-77
2022/07/26 02:08:54;;;;;;;16.23;9.98;;;640.10;2176.00;;;;;;5115248;28;20015;-78
2022/07/26 02:11:19;;;;;;;12.95;9.02;;;640.00;2176.00;;;;;;5095886;28;20036;-78
2022/07/26 02:13:45;;;;;;;14.30;9.73;;;615.30;2176.00;;;;;;5114948;28;20019;-78
2022/07/26 02:16:13;;;;;;;17.45;10.65;;;615.20;2252.80;;;;;;5114781;28;20016;-78
2022/07/26 02:18:42;;;;;;;22.42;10.70;;;615.00;2252.80;;;;;;5114646;28;20011;-77
2022/07/26 02:21:08;;;;;;;13.32;9.75;;;615.00;2201.60;;;;;;5096820;28;20568;-77
2022/07/26 02:23:35;;;;;;;21.48;11.82;;;615.00;2252.80;;;;;;5115167;28;20023;-78
2022/07/26 02:26:10;;;;;;;15.73;10.27;;;614.90;2304.00;;;;;;5096824;28;20469;-78
2022/07/26 02:28:40;;;;;;;19.92;11.25;;;614.80;2355.20;;;;;;5115466;28;20055;-78
2022/07/26 02:31:06;;;;;;;21.48;11.00;;;614.70;2329.60;;;;;;5097334;28;20047;-78
2022/07/26 02:33:32;;;;;;;17.98;11.55;;;614.60;2278.40;;;;;;5097452;28;20047;-78
2022/07/26 02:35:58;;;;;;;18.55;10.73;;;614.60;2201.60;;;;;;5113431;28;20024;-77
2022/07/26 02:38:24;;;;;;;14.52;10.57;;;614.50;2150.40;;;;;;5115094;28;20026;-76
2022/07/26 02:40:51;;;;;;;16.60;10.68;;;589.70;2176.00;;;;;;5095907;28;20027;-77
2022/07/26 02:43:17;;;;;;;18.25;10.05;;;;;;;;;;5096023;28;20028;-78
2022/07/26 02:45:43;;;;;;;17.52;11.43;;;589.40;2227.20;;;;;;5095791;28;20506;-78
2022/07/26 02:48:08;;;;;;;22.77;11.70;;;589.40;2252.80;;;;;;5114418;28;20035;-79
2022/07/26 02:50:34;;;;;;;16.40;10.35;;;589.30;2278.40;;;;;;5096979;28;20126;-79
2022/07/26 02:53:00;;;;;;;16.52;11.25;;;589.20;2278.40;;;;;;5096369;28;20059;-79
2022/07/26 02:55:26;;;;;;;20.23;9.95;;;589.00;2329.60;;;;;;5096967;28;20043;-79
2022/07/26 02:57:52;;;;;;;15.60;11.52;;;589.00;2329.60;;;;;;5096439;28;20016;-80
2022/07/26 03:00:21;;;;;;;21.73;11.15;;;589.00;2329.60;;;;;;5097101;28;20054;-79
2022/07/26 03:02:48;;;;;;;13.18;11.70;;;589.00;2304.00;;;;;;5096793;28;20073;-79
2022/07/26 03:05:14;;;;;;;16.92;10.63;;;588.90;2329.60;;;;;;5097111;28;20066;-79
2022/07/26 03:07:39;;;;;;;15.93;12.00;;;589.00;2304.00;;;;;;5097047;28;20051;-79
2022/07/26 03:10:06;;;;;;;15.43;11.45;;;589.00;2304.00;;;;;;5096864;28;20023;-79
2022/07/26 03:12:31;;;;;;;16.80;11.18;;;589.20;2278.40;;;;;;5096665;28;20523;-79
2022/07/26 03:14:57;;;;;;;21.58;11.95;;;589.00;2304.00;;;;;;5096272;28;20024;-79
2022/07/26 03:17:23;;;;;;;13.95;11.02;;;589.00;2329.60;;;;;;5110314;28;20024;-79
2022/07/26 03:19:49;;;;;;;16.50;10.50;;;589.10;2304.00;;;;;;5114654;28;20038;-79
2022/07/26 03:22:14;;;;;;;15.15;10.13;;;589.00;2304.00;;;;;;5095855;28;20047;-79
2022/07/26 03:24:40;;;;;;;18.08;11.57;;;588.90;2329.60;;;;;;5096321;28;20023;-79
2022/07/26 03:27:06;;;;;;;16.25;10.95;;;588.90;2329.60;;;;;;5095975;28;20476;-79
2022/07/26 03:29:32;;;;;;;18.15;10.95;;;564.10;2355.20;;;;;;5095831;28;20043;-79
2022/07/26 03:31:57;;;;;;;12.50;11.00;;;588.90;2329.60;;;;;;5096372;28;20020;-79
2022/07/26 03:34:23;;;;;;;15.35;10.98;;;588.80;2355.20;;;;;;5114581;28;20384;-79
2022/07/26 03:36:49;;;;;;;22.75;11.55;;;588.90;2329.60;;;;;;5096353;28;20024;-79
2022/07/26 03:39:15;;;;;;;14.65;11.52;;;564.10;2355.20;;;;;;5096299;28;20023;-79
2022/07/26 03:41:40;;;;;;;19.73;12.25;;;564.10;2380.80;;;;;;5095913;28;20451;-79
2022/07/26 03:44:06;;;;;;;20.63;12.55;;;564.00;2380.80;;;;;;5095323;28;20035;-79
2022/07/26 03:46:32;;;;;;;18.05;11.68;;;564.10;2355.20;;;;;;5095901;28;20020;-79
2022/07/26 03:48:58;;;;;;;13.05;11.45;;;564.00;2355.20;;;;;;5114420;28;20023;-79
2022/07/26 03:51:23;;;;;;;17.42;12.95;;;563.90;2355.20;;;;;;5095884;28;20032;-76
2022/07/26 03:53:49;;;;;;;20.40;11.85;;;563.90;2355.20;;;;;;5114224;28;20019;-77
2022/07/26 03:56:30;;;;;;;19.83;11.82;;;564.00;2380.80;;;;;;5114135;28;20508;-76
2022/07/26 03:59:24;;;;;;;16.23;12.13;;;564.00;2380.80;;;;;;5112780;28;20019;-77
2022/07/26 04:01:50;;;;;;;20.65;12.43;;;564.10;2355.20;;;;;;5111186;28;20055;-77
2022/07/26 04:04:17;;;;;;;19.95;11.90;;;564.10;2355.20;;;;;;5095732;28;20042;-77
2022/07/26 04:06:45;;;;;;;18.30;11.93;;;588.90;2329.60;;;;;;5113841;28;20099;-76
2022/07/26 04:09:12;;;;;;;18.40;12.70;;;589.10;2304.00;;;;;;5113696;28;20076;-77
2022/07/26 04:11:39;;;;;;;18.90;12.57;;;589.20;2278.40;;;;;;5113706;28;20457;-78
2022/07/26 04:14:04;;;;;;;14.75;11.98;;;589.30;2252.80;;;;;;5113762;28;20031;-77
2022/07/26 04:16:31;;;;;;;24.77;11.77;;;589.30;2278.40;;;;;;5095503;28;20020;-77
2022/07/26 04:18:58;;;;;;;23.95;12.98;;;589.40;2278.40;;;;;;5113659;28;20028;-79
2022/07/26 04:21:24;;;;;;;19.63;12.15;;;589.60;2252.80;;;;;;5113662;28;20031;-76
2022/07/26 04:23:51;;;;;;;18.75;11.50;;;589.60;2252.80;;;;;;5078565;28;20072;-78
2022/07/26 04:26:18;;;;;;;16.50;12.35;;;589.70;2252.80;;;;;;5094201;28;20035;-77
2022/07/26 04:28:43;;;;;;;15.85;12.02;;;614.40;2252.80;;;;;;5113351;28;20080;-78
2022/07/26 04:31:09;;;;;;;19.55;11.88;;;614.50;2278.40;;;;;;5095318;28;20111;-79
2022/07/26 04:33:35;;;;;;;19.13;12.90;;;614.60;2227.20;;;;;;5095487;28;20112;-77
2022/07/26 04:36:02;;;;;;;24.58;14.80;;;614.70;2227.20;;;;;;5113553;28;20057;-77
2022/07/26 04:38:27;;;;;;;25.08;14.45;;;614.60;2227.20;;;;;;5092821;28;20020;-81
2022/07/26 04:40:54;;;;;;;18.92;13.45;;;614.70;2227.20;;;;;;5095405;28;20051;-79
2022/07/26 04:43:20;;;;;;;17.73;13.25;;;614.70;2252.80;;;;;;5095592;28;20801;-80
2022/07/26 04:45:47;;;;;;;20.02;13.25;;;614.70;2252.80;;;;;;5095515;28;20381;-80
2022/07/26 04:48:13;;;;;;;22.20;12.90;;;614.80;2252.80;;;;;;5095556;28;20027;-80
2022/07/26 04:50:41;;;;;;;22.35;12.75;;;614.90;2227.20;;;;;;5095771;28;20049;-78
2022/07/26 04:53:08;;;;;;;21.38;14.82;;;615.00;2252.80;;;;;;5103794;28;20031;-78
2022/07/26 04:55:33;;;;;;;17.65;13.60;;;615.10;2201.60;;;;;;5115838;28;20042;-80
2022/07/26 04:57:59;;;;;;;19.05;13.95;;;615.10;2227.20;;;;;;5127938;28;20460;-76
2022/07/26 05:00:25;;;;;;;21.05;13.18;;;615.30;2201.60;;;;;;5126279;28;20043;-77
2022/07/26 05:02:56;;;;;;;26.20;13.27;;;615.30;2176.00;;;;;;5129247;28;20023;-81
2022/07/26 05:05:23;;;;;;;17.98;12.60;;;615.30;2201.60;;;;;;5106390;28;20031;-77
2022/07/26 05:07:52;;;;;;;17.65;12.15;;;640.10;2176.00;;;;;;5115738;28;20024;-79
2022/07/26 05:10:19;;;;;;;15.70;13.05;;;640.20;2176.00;;;;;;5134311;28;20484;-81
2022/07/26 05:12:45;;;;;;;16.27;13.00;;;640.20;2124.80;;;;;;5113813;28;20042;-80
2022/07/26 05:15:12;;;;;;;18.35;13.38;;;640.50;2150.40;;;;;;5103584;28;20106;-79
2022/07/26 05:17:39;;;;;;;21.58;14.05;;;640.60;2124.80;;;;;;5101608;28;20098;-81
2022/07/26 05:20:10;;;;;;;18.15;12.32;;;640.70;2099.20;;;;;;5096053;28;20063;-80
2022/07/26 05:22:36;;;;;;;19.77;12.85;;;640.80;2124.80;;;;;;5112353;27;20035;-79
2022/07/26 05:25:03;;;;;;;18.58;12.20;;;640.80;2099.20;;;;;;5137972;27;20023;-79
2022/07/26 05:27:29;;;;;;;16.98;12.85;;;640.90;2073.60;;;;;;5107381;28;20122;-78
2022/07/26 05:29:55;;;;;;;21.02;14.30;;;640.90;2048.00;;;;;;5116313;27;20587;-79
2022/07/26 05:32:23;;;;;;;18.08;12.45;;;640.90;2022.40;;;;;;5119468;27;20019;-79
2022/07/26 05:34:49;;;;;;;21.25;13.40;;;665.60;2048.00;;;;;;5105274;28;20462;-79
2022/07/26 05:37:15;;;;;;;17.85;12.38;;;665.70;2022.40;;;;;;5105319;27;20123;-79
2022/07/26 05:39:41;;;;;;;31.75;14.45;;;665.70;2022.40;;;;;;5125426;27;20472;-80
2022/07/26 05:42:07;;;;;;;21.70;13.50;;;665.80;2022.40;;;;;;5117179;27;20073;-80
2022/07/26 05:44:32;;;;;;;23.27;14.07;;;665.80;1996.80;;;;;;5120132;27;20073;-80
2022/07/26 05:46:58;;;;;;;16.40;12.52;;;665.90;1971.20;;;;;;5117303;27;20072;-79
2022/07/26 05:49:24;;;;;;;21.85;13.85;;;666.00;1945.60;;;;;;5098806;28;20020;-80
2022/07/26 05:51:51;;;;;;;20.38;13.15;;;666.20;1920.00;;;;;;5116897;28;20422;-79
2022/07/26 05:54:19;;;;;;;20.65;13.30;;;666.30;1945.60;;;;;;5123399;27;20023;-79
2022/07/26 05:56:45;;;;;;;15.32;12.18;;;666.30;1945.60;;;;;;5106110;28;20027;-79
2022/07/26 05:59:12;;;;;;;18.60;11.77;;;;;;;;;;5121597;27;20394;-79
2022/07/26 06:01:37;;;;;;;15.57;11.68;;;666.50;1868.80;;;;;;5119027;27;20114;-78
2022/07/26 06:04:03;;;;;;;17.10;13.18;;;691.30;1817.60;;;;;;5137211;27;20102;-78
2022/07/26 06:06:29;;;;;;;22.67;11.35;;;691.30;1817.60;;;;;;5109908;28;20023;-79
2022/07/26 06:08:55;;;;;;;24.27;13.38;;;691.40;1792.00;;;;;;5113266;27;20027;-79
2022/07/26 06:11:21;;;;;;;13.82;10.77;;;691.60;1792.00;;;;;;5137260;27;20107;-81
2022/07/26 06:13:47;;;;;;;16.42;11.50;;;691.70;1766.40;;;;;;5118674;27;20380;-80
2022/07/26 06:16:12;;;;;;;15.68;10.88;;;691.80;1740.80;;;;;;5114018;28;20027;-80
2022/07/26 06:18:39;;;;;;;19.45;10.98;;;691.90;1766.40;;;;;;5090851;28;20078;-79
2022/07/26 06:21:05;;;;;;;16.13;11.30;;;692.10;1715.20;;;;;;5098728;28;20542;-79
2022/07/26 06:23:30;;;;;;;16.08;10.80;;;716.80;1689.60;;;;;;5109154;28;20036;-79
2022/07/26 06:25:56;;;;;;;14.32;10.63;;;716.90;1689.60;;;;;;5115370;28;20027;-79
2022/07/26 06:28:22;;;;;;;51.83;12.05;;;716.90;1638.40;;;;;;5099645;28;20048;-79
2022/07/26 06:30:48;;;;;;;19.70;10.80;;;717.10;1664.00;;;;;;5094578;28;20030;-79
2022/07/26 06:33:14;;;;;;;13.30;9.60;;;717.30;1612.80;;;;;;5108983;28;20020;-80
2022/07/26 06:35:41;;;;;;;16.95;10.52;;;717.40;1638.40;;;;;;5102842;28;20023;-79
2022/07/26 06:38:08;;;;;;;11.65;8.13;;;717.70;1612.80;;;;;;5114988;28;20023;-80
2022/07/26 06:40:34;;;;;;;18.17;9.70;;;717.70;1587.20;;;;;;5095065;28;20040;-79
2022/07/26 06:43:01;;;;;;;15.63;9.07;;;742.40;1612.80;;;;;;5102512;28;20027;-80
2022/07/26 06:45:27;;;;;;;13.77;9.77;;;742.60;1561.60;;;;;;5105183;28;20032;-80
2022/07/26 06:47:54;;;;;;;12.60;8.38;;;742.60;1510.40;;;;;;5095658;28;20027;-79
2022/07/26 06:50:20;;;;;;;14.80;9.40;;;742.70;1459.20;;;;;;5103443;28;20046;-79
2022/07/26 06:52:46;;;;;;;12.38;8.38;;;742.80;1484.80;;;;;;5115375;28;20027;-77
2022/07/26 06:55:12;;;;;;;12.98;9.43;;;743.00;1510.40;;;;;;5107211;28;20473;-78
2022/07/26 06:57:38;;;;;;;14.65;9.63;;;743.00;1459.20;;;;;;5108344;28;20024;-77
2022/07/26 07:00:06;;;;;;;12.93;9.00;;;743.10;1484.80;;;;;;5113080;28;20040;-79
2022/07/26 07:02:32;;;;;;;12.25;9.75;;;743.20;1484.80;;;;;;5102577;28;20026;-79
2022/07/26 07:04:58;;;;;;;15.50;8.63;;;743.30;1484.80;;;;;;5093884;28;20095;-83
2022/07/26 07:07:24;;;;;;;14.63;9.48;;;768.10;1484.80;;;;;;5111827;27;20406;-84
2022/07/26 07:09:50;;;;;;;16.13;9.20;;;768.20;1433.60;;;;;;5105928;28;20030;-85
2022/07/26 07:12:15;;;;;;;17.23;9.15;;;768.30;1433.60;;;;;;5115446;28;20051;-84
2022/07/26 07:14:41;;;;;;;15.85;8.77;;;768.50;1459.20;;;;;;5114297;28;20104;-83
2022/07/26 07:17:08;;;;;;;11.73;8.93;;;768.60;1433.60;;;;;;5115600;28;20053;-81
2022/07/26 07:19:35;;;;;;;19.52;10.55;;;768.70;1408.00;;;;;;5099984;28;20028;-79
2022/07/26 07:22:02;;;;;;;11.85;8.52;;;793.60;1433.60;;;;;;5106917;28;20047;-88
2022/07/26 07:24:28;;;;;;;12.90;9.02;;;793.70;1382.40;;;;;;5094075;28;20024;-82
2022/07/26 07:26:53;;;;;;;17.80;9.68;;;793.70;1382.40;;;;;;5110414;28;20051;-87
2022/07/26 07:29:19;;;;;;;13.68;9.50;;;793.90;1382.40;;;;;;5092073;28;20051;-89
2022/07/26 07:31:46;;;;;;;13.50;8.93;;;793.90;1408.00;;;;;;5095016;28;20027;-84
2022/07/26 07:34:21;;;;;;;12.75;9.32;;;793.90;1382.40;;;;;;5090838;28;20028;-90
2022/07/26 07:36:48;;;;;;;16.15;9.52;;;793.90;1356.80;;;;;;5093133;28;20050;-84
2022/07/26 07:39:15;;;;;;;12.55;8.35;;;794.10;1331.20;;;;;;5091750;28;20051;-88
2022/07/26 07:41:41;;;;;;;11.75;8.23;;;794.10;1331.20;;;;;;5091451;28;20395;-79
2022/07/26 07:44:07;;;;;;;12.57;8.02;;;794.10;1331.20;;;;;;5092506;28;20024;-80
2022/07/26 07:46:33;;;;;;;14.50;9.23;;;794.20;1331.20;;;;;;5090929;28;20030;-81
2022/07/26 07:48:59;;;;;;;12.50;9.10;;;794.20;1331.20;;;;;;5091303;28;20039;-86
2022/07/26 07:51:26;;;;;;;14.25;8.48;;;794.30;1331.20;;;;;;5093980;28;20024;-83
2022/07/26 07:53:52;;;;;;;14.77;9.50;;;794.40;1331.20;;;;;;5090765;28;20378;-80
2022/07/26 07:56:17;;;;;;;14.40;9.40;;;794.50;1331.20;;;;;;5094140;28;20023;-83
2022/07/26 07:58:43;;;;;;;13.18;9.57;;;819.20;1305.60;;;;;;5090298;28;20737;-80
2022/07/26 08:01:09;;;;;;;10.43;8.43;;;819.20;1305.60;;;;;;5090438;28;20036;-80
2022/07/26 08:03:35;;;;;;;18.85;9.75;;;819.30;1305.60;;;;;;5092986;28;20073;-80
2022/07/26 08:06:02;;;;;;;13.95;9.30;;;819.30;1305.60;;;;;;5093085;28;20057;-83
2022/07/26 08:08:27;;;;;;;14.25;9.50;;;819.40;1305.60;;;;;;5090398;28;20095;-81
2022/07/26 08:10:53;;;;;;;15.00;8.98;;;819.50;1280.00;;;;;;5091147;28;20039;-82
2022/07/26 08:13:22;;;;;;;13.90;9.30;;;819.40;1254.40;;;;;;5092594;28;20024;-81
2022/07/26 08:15:50;;;;;;;13.80;9.43;;;819.50;1254.40;;;;;;5090508;28;20021;-83
2022/07/26 08:18:16;;;;;;;11.77;9.00;;;819.50;1254.40;;;;;;5092438;28;20035;-84
2022/07/26 08:20:41;;;;;;;12.30;8.73;;;819.60;1254.40;;;;;;5092716;28;20036;-81
2022/07/26 08:23:07;;;;;;;13.90;9.40;;;819.70;1254.40;;;;;;5092896;28;20028;-85
2022/07/26 08:25:33;;;;;;;12.10;8.55;;;819.80;1228.80;;;;;;5091199;28;20026;-86
2022/07/26 08:27:59;;;;;;;11.90;8.57;;;819.90;1228.80;;;;;;5092580;28;20039;-78
2022/07/26 08:30:24;;;;;;;13.82;8.88;;;819.80;1203.20;;;;;;5091933;28;20021;-81
2022/07/26 08:32:50;;;;;;;15.35;8.68;;;820.00;1228.80;;;;;;5092198;28;20024;-75
2022/07/26 08:35:17;;;;;;;9.85;7.88;;;820.10;1203.20;;;;;;5090811;28;20413;-77
2022/07/26 08:37:43;;;;;;;15.77;8.05;;;844.80;1203.20;;;;;;5091707;28;20020;-81
2022/07/26 08:40:08;;;;;;;14.38;8.35;;;820.10;1203.20;;;;;;5092254;28;20115;-86
2022/07/26 08:42:34;;;;;;;13.40;8.50;;;844.80;1203.20;;;;;;5090849;28;20020;-79
2022/07/26 08:45:01;;;;;;;10.18;7.68;;;844.90;1203.20;;;;;;5092541;28;20028;-80
2022/07/26 08:47:26;;;;;;;8.95;7.63;;;844.90;1203.20;;;;;;5091641;28;20028;-76
2022/07/26 08:49:52;;;;;;;14.05;8.05;;;844.90;1177.60;;;;;;5091765;28;20051;-80
2022/07/26 08:52:18;;;;;;;11.65;8.32;;;845.00;1177.60;;;;;;5093490;28;20028;-77
2022/07/26 08:54:46;;;;;;;15.38;7.53;;;845.10;1177.60;;;;;;5111912;28;20024;-78
2022/07/26 08:57:12;;;;;;;10.27;6.80;;;845.20;1152.00;;;;;;5102415;28;20065;-80
2022/07/26 08:59:38;;;;;;;13.02;7.57;;;845.30;1152.00;;;;;;5109448;28;20111;-80
2022/07/26 09:02:10;;;;;;;16.00;7.60;;;845.30;1126.40;;;;;;5112501;28;20027;-80
2022/07/26 09:04:39;;;;;;;8.73;6.45;;;845.40;1126.40;;;;;;5095668;28;20032;-79
2022/07/26 09:07:10;;;;;;;11.27;7.40;;;845.70;1126.40;;;;;;5091511;28;20060;-79
2022/07/26 09:09:39;;;;;;;13.32;6.85;;;870.40;1075.20;;;;;;5089460;28;20115;-79
2022/07/26 09:32:24;;;;;;;9.90;6.30;;;870.60;1049.60;;;;;;5086015;28;20402;-75
2022/07/26 09:35:09;;;;;;;9.57;6.47;;;896.30;972.80;;;;;;5043830;28;20041;-74
2022/07/26 09:37:38;;;;;;;9.88;6.05;;;896.40;998.40;;;;;;5042304;28;20029;-75
2022/07/26 09:40:07;;;;;;;9.80;7.18;;;896.30;972.80;;;;;;5026761;28;20398;-75
2022/07/26 09:42:34;;;;;;;8.40;6.82;;;896.50;972.80;;;;;;5040458;28;20116;-75
2022/07/26 09:45:00;;;;;;;9.27;6.88;;;896.50;921.60;;;;;;5046616;28;20026;-75
2022/07/26 09:47:39;;;;;;;7.85;6.78;;;896.60;921.60;;;;;;5026568;28;20045;-75
2022/07/26 09:50:15;;;;;;;16.95;6.82;;;896.80;947.20;;;;;;5033522;28;20049;-76
2022/07/26 09:53:16;;;;;;;8.55;7.03;;;896.90;921.60;;;;;;5029847;28;20033;-75
2022/07/26 09:55:45;;;;;;;8.23;6.38;;;921.80;947.20;;;;;;5006715;28;20116;-75
2022/07/26 09:58:12;;;;;;;10.43;6.70;;;921.90;947.20;;;;;;4997915;28;20034;-74
2022/07/26 10:00:39;;;;;;;7.43;6.07;;;921.90;921.60;;;;;;5017103;28;20106;-75
2022/07/26 10:03:05;;;;;;;11.38;7.05;;;922.00;921.60;;;;;;5011922;28;20040;-75
2022/07/26 10:05:32;;;;;;;11.20;7.47;;;922.10;921.60;;;;;;5008263;28;20038;-76
2022/07/26 10:07:59;;;;;;;9.30;7.13;;;922.30;921.60;;;;;;5006029;28;20173;-77
2022/07/26 10:10:48;;;;;;;14.65;7.18;;;922.40;921.60;;;;;;5006831;28;20027;-81
2022/07/26 10:13:14;;;;;;;9.50;6.57;;;922.40;896.00;;;;;;5005960;28;20034;-80
2022/07/26 10:15:40;;;;;;;9.68;6.30;;;947.60;896.00;;;;;;5005420;28;20034;-82
2022/07/26 10:18:08;;;;;;;8.73;6.97;;;947.90;896.00;;;;;;4987087;28;20041;-80
2022/07/26 10:20:41;;;;;;;6.82;5.88;;;947.90;896.00;;;;;;5005880;28;20030;-79
2022/07/26 10:23:57;;;;;;;8.85;6.60;;;973.40;896.00;;;;;;4990029;28;20041;-80
2022/07/26 10:26:31;;;;;;;6.53;5.82;;;973.70;896.00;;;;;;4910878;29;20047;-80
2022/07/26 10:29:16;;;;;;;10.48;6.65;;;998.80;896.00;;;;;;4937808;28;20122;-82
2022/07/26 10:32:02;;;;;;;6.78;5.90;;;998.80;870.40;;;;;;4966919;28;20432;-83
2022/07/26 10:34:39;;;;;;;8.30;6.63;;;973.70;870.40;;;;;;4967469;28;20043;-85
2022/07/26 10:37:20;;;;;;;11.10;6.90;;;998.90;870.40;;;;;;4955689;28;20094;-81
2022/07/26 10:39:46;;;;;;;8.80;6.78;;;998.90;844.80;;;;;;4971738;28;20026;-82
2022/07/26 10:42:11;;;;;;;9.07;6.25;;;998.80;844.80;;;;;;4956912;28;20022;-81
2022/07/26 10:44:40;;;;;;;7.70;6.22;;;998.70;870.40;;;;;;4957138;28;20070;-82
2022/07/26 10:47:06;;;;;;;10.77;5.53;;;998.70;870.40;;;;;;4954880;28;20416;-81
2022/07/26 10:49:35;;;;;;;6.97;6.13;;;998.70;896.00;;;;;;4973173;28;20085;-86
2022/07/26 10:52:13;;;;;;;13.40;6.00;;;998.80;870.40;;;;;;4971752;28;20039;-82
2022/07/26 10:54:57;;;;;;;9.45;6.53;;;999.10;870.40;;;;;;4955782;28;20574;-82
2022/07/26 10:57:31;;;;;;;9.07;6.07;;;999.30;870.40;;;;;;4956900;28;20038;-78
2022/07/26 10:59:59;;;;;;;7.57;5.83;;;1024.10;844.80;;;;;;4956490;28;20026;-82
2022/07/26 11:02:27;;;;;;;7.60;5.93;;;999.10;844.80;;;;;;4990670;28;20465;-78
2022/07/26 11:05:14;;;;;;;11.60;6.45;;;998.90;844.80;;;;;;5055553;28;20021;-78
2022/07/26 11:07:58;;;;;;;7.32;5.60;;;999.20;844.80;;;;;;5054284;28;20033;-78
2022/07/26 11:10:33;;;;;;;10.60;5.28;;;1024.00;819.20;;;;;;5050553;28;20033;-78
2022/07/26 11:12:59;;;;;;;;;;;1024.00;819.20;;;;;;5054987;28;20029;-78
2022/07/26 11:15:25;;;;;;;7.63;5.82;;;999.30;819.20;;;;;;5051358;28;19916;-80
2022/07/26 11:17:50;;;;;;;9.20;5.97;;;1024.40;819.20;;;;;;5061720;28;20140;-79
2022/07/26 11:20:25;;;;;;;7.40;5.50;;;1024.20;819.20;;;;;;5043843;28;20561;-78
2022/07/26 11:22:51;;;;;;;;;;;1024.40;819.20;;;;;;5045206;28;20028;-77
2022/07/26 11:25:21;;;;;;;8.35;5.97;;;1024.30;819.20;;;;;;5067258;28;19908;-79
2022/07/26 11:28:01;;;;;;;7.78;6.00;;;1024.30;819.20;;;;;;5069958;28;20040;-78
2022/07/26 11:30:28;;;;;;;8.80;5.75;;;1024.20;793.60;;;;;;5069290;28;20401;-79
2022/07/26 11:32:57;;;;;;;8.45;5.20;;;1024.40;793.60;;;;;;5069717;28;20037;-77
2022/07/26 11:35:25;;;;;;;5.97;5.38;;;999.30;768.00;;;;;;5053897;28;20028;-77
2022/07/26 11:37:56;;;;;;;10.15;6.28;;;1024.50;793.60;;;;;;5047610;28;20475;-79
2022/07/26 11:40:45;;;;;;;6.85;5.47;;;1024.90;793.60;;;;;;5068578;28;20033;-77
2022/07/26 11:43:11;;;;;;;8.02;6.22;;;1049.70;819.20;;;;;;5051593;28;20032;-77
2022/07/26 11:45:37;;;;;;;7.70;5.60;;;1049.70;819.20;;;;;;5069442;28;20486;-78
2022/07/26 11:48:07;;;;;;;8.35;6.00;;;1049.60;819.20;;;;;;5054151;28;20020;-77
2022/07/26 11:50:33;;;;;;;7.90;5.65;;;1024.60;793.60;;;;;;5066765;28;20029;-78
2022/07/26 11:52:59;;;;;;;10.65;6.00;;;1024.90;768.00;;;;;;5068939;28;20024;-78
2022/07/26 11:55:29;;;;;;;9.75;5.90;;;1024.90;768.00;;;;;;5053407;28;20082;-78
2022/07/26 11:58:02;;;;;;;6.18;5.43;;;1024.90;793.60;;;;;;5054248;28;20410;-86
2022/07/26 12:00:28;;;;;;;6.03;5.40;;;1024.60;793.60;;;;;;5069431;28;20037;-79
2022/07/26 12:02:55;;;;;;;9.40;6.20;;;1049.60;793.60;;;;;;5052909;28;20032;-78
2022/07/26 12:05:22;;;;;;;8.75;5.90;;;1024.60;768.00;;;;;;5052099;28;20033;-77
2022/07/26 12:08:05;;;;;;;7.97;5.22;;;1049.80;793.60;;;;;;5053062;28;20123;-77
2022/07/26 12:10:31;;;;;;;7.97;6.35;;;1049.80;793.60;;;;;;5052327;28;20398;-77
2022/07/26 12:13:12;;;;;;;6.82;5.85;;;1049.60;819.20;;;;;;5053205;28;20025;-74
2022/07/26 12:15:51;;;;;;;8.05;5.80;;;1024.50;793.60;;;;;;5051388;28;20103;-80
2022/07/26 12:18:26;;;;;;;6.80;5.65;;;1049.90;819.20;;;;;;5049889;28;20064;-77
2022/07/26 12:21:11;;;;;;;;;;;1049.90;793.60;;;;;;5051033;28;20024;-78
2022/07/26 12:23:44;;;;;;;7.95;5.28;;;1049.80;819.20;;;;;;5050938;28;19978;-77
2022/07/26 12:26:29;;;;;;;9.82;5.63;;;1050.40;793.60;;;;;;5053095;28;20115;-77
2022/07/26 12:28:56;;;;;;;8.02;5.57;;;1050.30;793.60;;;;;;5050422;28;20525;-78
2022/07/26 12:31:25;;;;;;;7.38;5.30;;;1050.40;768.00;;;;;;5051765;28;20049;-80
2022/07/26 12:33:50;;;;;;;6.50;5.25;;;1050.20;793.60;;;;;;5053290;28;20367;-77